createdAt,value
2018-01-26T00:01:35.850Z,36.80
2018-01-26T00:04:03.732Z,23.73
2018-01-26T00:06:31.975Z,29.92
2018-01-26T00:09:01.075Z,29.05
2018-01-26T00:11:28.971Z,26.17
2018-01-26T00:13:57.219Z,32.63
2018-01-26T00:16:25.095Z,31.75
2018-01-26T00:18:52.570Z,24.10
2018-01-26T00:21:20.056Z,28.10
2018-01-26T00:23:48.303Z,30.40
2018-01-26T00:26:16.578Z,25.00
2018-01-26T00:28:44.848Z,32.75
2018-01-26T00:31:12.717Z,28.55
2018-01-26T00:33:41.403Z,28.20
2018-01-26T00:36:08.867Z,28.60
2018-01-26T00:38:36.748Z,24.42
2018-01-26T00:41:05.254Z,28.12
2018-01-26T00:43:33.604Z,29.75
2018-01-26T00:46:01.091Z,39.70
2018-01-26T00:48:28.906Z,29.00
2018-01-26T00:50:56.380Z,29.48
2018-01-26T00:53:23.878Z,29.25
2018-01-26T00:55:52.093Z,32.35
2018-01-26T00:58:19.679Z,31.10
2018-01-26T01:00:47.146Z,30.88
2018-01-26T01:03:14.742Z,33.67
2018-01-26T01:05:43.005Z,36.35
2018-01-26T01:08:10.550Z,32.00
2018-01-26T01:10:38.023Z,25.23
2018-01-26T01:13:05.517Z,27.73
2018-01-26T01:15:33.842Z,33.97
2018-01-26T01:18:02.037Z,28.25
2018-01-26T01:20:29.506Z,30.62
2018-01-26T01:22:57.778Z,28.95
2018-01-26T01:25:26.314Z,34.55
2018-01-26T01:27:53.785Z,32.95
2018-01-26T01:30:21.251Z,37.25
2018-01-26T01:32:49.471Z,32.92
2018-01-26T01:35:16.949Z,31.55
2018-01-26T01:37:45.180Z,32.33
2018-01-26T01:40:13.807Z,27.05
2018-01-26T01:42:42.532Z,41.35
2018-01-26T01:45:10.409Z,38.30
2018-01-26T01:47:37.927Z,31.40
2018-01-26T01:50:06.179Z,28.83
2018-01-26T01:52:34.463Z,41.00
2018-01-26T01:55:02.841Z,29.73
2018-01-26T01:57:31.770Z,31.62
2018-01-26T01:59:59.649Z,31.15
2018-01-26T02:02:27.378Z,30.20
2018-01-26T02:04:55.631Z,33.55
2018-01-26T02:07:23.922Z,30.90
2018-01-26T02:09:52.595Z,27.90
2018-01-26T02:12:20.879Z,34.30
2018-01-26T02:14:48.760Z,30.90
2018-01-26T02:17:16.631Z,29.45
2018-01-26T02:19:44.103Z,36.83
2018-01-26T02:22:11.591Z,33.90
2018-01-26T02:24:39.507Z,29.30
2018-01-26T02:27:07.001Z,35.17
2018-01-26T02:29:34.487Z,37.42
2018-01-26T02:32:02.726Z,32.90
2018-01-26T02:34:31.402Z,36.35
2018-01-26T02:36:58.888Z,33.17
2018-01-26T02:39:27.546Z,37.28
2018-01-26T02:41:55.415Z,32.85
2018-01-26T02:44:23.065Z,28.98
2018-01-26T02:46:50.853Z,33.67
2018-01-26T02:49:18.352Z,31.73
2018-01-26T02:51:46.576Z,32.22
2018-01-26T02:54:14.060Z,30.33
2018-01-26T02:56:42.305Z,28.62
2018-01-26T02:59:10.921Z,33.72
2018-01-26T03:01:39.518Z,29.05
2018-01-26T03:04:07.590Z,28.30
2018-01-26T03:06:35.833Z,28.70
2018-01-26T03:09:04.325Z,33.58
2018-01-26T03:11:32.573Z,28.08
2018-01-26T03:14:00.819Z,27.87
2018-01-26T03:16:29.428Z,27.58
2018-01-26T03:18:56.888Z,34.33
2018-01-26T03:21:24.406Z,31.92
2018-01-26T03:23:52.981Z,31.85
2018-01-26T03:26:20.878Z,30.95
2018-01-26T03:28:48.348Z,37.72
2018-01-26T03:31:15.829Z,30.00
2018-01-26T03:33:43.314Z,28.75
2018-01-26T03:36:11.560Z,33.80
2018-01-26T03:38:39.814Z,34.53
2018-01-26T03:41:07.291Z,32.65
2018-01-26T03:43:34.809Z,30.02
2018-01-26T03:46:02.703Z,39.17
2018-01-26T03:48:30.182Z,30.65
2018-01-26T03:50:58.051Z,32.63
2018-01-26T03:53:25.833Z,32.95
2018-01-26T03:55:53.734Z,30.95
2018-01-26T03:58:21.595Z,34.47
2018-01-26T04:00:50.171Z,32.13
2018-01-26T04:03:18.407Z,40.90
2018-01-26T04:05:45.900Z,35.92
2018-01-26T04:08:13.774Z,31.30
2018-01-26T04:10:41.642Z,28.48
2018-01-26T04:13:09.180Z,39.72
2018-01-26T04:15:37.043Z,36.13
2018-01-26T04:18:04.522Z,36.13
2018-01-26T04:20:32.777Z,39.63
2018-01-26T04:23:01.031Z,38.83
2018-01-26T04:25:29.269Z,38.03
2018-01-26T04:27:56.752Z,39.58
2018-01-26T04:30:24.967Z,41.17
2018-01-26T04:32:53.209Z,46.08
2018-01-26T04:35:20.676Z,53.35
2018-01-26T04:37:49.322Z,66.25
2018-01-26T04:40:16.791Z,60.95
2018-01-26T04:42:45.039Z,60.17
2018-01-26T04:45:12.869Z,56.90
2018-01-26T04:47:40.479Z,52.90
2018-01-26T04:50:07.967Z,55.63
2018-01-26T04:52:35.909Z,52.80
2018-01-26T04:55:04.155Z,40.83
2018-01-26T04:57:32.064Z,67.30
2018-01-26T04:59:59.871Z,58.50
2018-01-26T05:02:28.114Z,45.88
2018-01-26T05:04:56.354Z,45.35
2018-01-26T05:07:24.259Z,52.25
2018-01-26T05:09:51.799Z,51.63
2018-01-26T05:12:19.662Z,47.60
2018-01-26T05:14:47.471Z,44.92
2018-01-26T05:17:14.936Z,48.90
2018-01-26T05:19:43.185Z,45.78
2018-01-26T05:22:11.071Z,66.50
2018-01-26T05:24:38.534Z,44.47
2018-01-26T05:27:06.415Z,51.50
2018-01-26T05:29:35.101Z,90.57
2018-01-26T05:32:03.343Z,63.75
2018-01-26T05:34:31.203Z,70.70
2018-01-26T05:36:59.402Z,83.90
2018-01-26T05:39:26.884Z,85.05
2018-01-26T05:41:54.352Z,57.08
2018-01-26T05:44:22.539Z,76.37
2018-01-26T05:46:50.043Z,75.10
2018-01-26T05:49:18.281Z,74.80
2018-01-26T05:51:46.131Z,63.15
2018-01-26T05:54:13.611Z,80.12
2018-01-26T05:56:41.089Z,79.78
2018-01-26T05:59:08.960Z,68.62
2018-01-26T06:01:36.830Z,72.75
2018-01-26T06:04:05.076Z,78.68
2018-01-26T06:06:33.791Z,64.32
2018-01-26T06:09:02.087Z,80.85
2018-01-26T06:11:30.332Z,65.95
2018-01-26T06:13:58.931Z,68.50
2018-01-26T06:16:27.203Z,80.18
2018-01-26T06:18:55.146Z,81.15
2018-01-26T06:21:23.400Z,79.28
2018-01-26T06:23:51.638Z,67.03
2018-01-26T06:26:19.138Z,64.55
2018-01-26T06:28:46.978Z,71.50
2018-01-26T06:31:15.230Z,53.80
2018-01-26T06:33:43.479Z,63.72
2018-01-26T06:36:11.017Z,66.03
2018-01-26T06:38:38.488Z,65.87
2018-01-26T06:41:06.351Z,77.45
2018-01-26T06:43:34.604Z,85.57
2018-01-26T06:46:02.493Z,101.87
2018-01-26T06:48:29.985Z,84.95
2018-01-26T06:50:58.597Z,97.88
2018-01-26T06:53:26.069Z,76.28
2018-01-26T06:55:53.550Z,112.10
2018-01-26T06:58:21.347Z,77.05
2018-01-26T07:00:49.215Z,104.63
2018-01-26T07:03:17.535Z,80.97
2018-01-26T07:05:45.340Z,85.18
2018-01-26T07:08:12.856Z,76.25
2018-01-26T07:10:40.737Z,65.03
2018-01-26T07:13:08.279Z,69.62
2018-01-26T07:15:35.770Z,74.07
2018-01-26T07:18:03.295Z,75.12
2018-01-26T07:20:31.571Z,75.00
2018-01-26T07:22:59.456Z,69.05
2018-01-26T07:25:27.021Z,73.10
2018-01-26T07:27:54.532Z,63.60
2018-01-26T07:30:22.016Z,78.55
2018-01-26T07:32:50.286Z,85.68
2018-01-26T07:35:18.159Z,86.35
2018-01-26T07:37:46.398Z,70.37
2018-01-26T07:40:14.643Z,62.90
2018-01-26T07:42:42.123Z,75.15
2018-01-26T07:45:10.361Z,72.65
2018-01-26T07:47:38.231Z,74.97
2018-01-26T07:50:06.435Z,69.47
2018-01-26T07:52:34.304Z,67.45
2018-01-26T07:55:02.563Z,68.37
2018-01-26T07:57:30.860Z,67.68
2018-01-26T07:59:59.105Z,84.97
2018-01-26T08:02:28.080Z,76.80
2018-01-26T08:04:55.996Z,72.93
2018-01-26T08:07:24.223Z,64.57
2018-01-26T08:09:51.727Z,66.22
2018-01-26T08:12:19.986Z,71.90
2018-01-26T08:14:47.439Z,86.63
2018-01-26T08:17:15.318Z,73.03
2018-01-26T08:19:43.195Z,69.47
2018-01-26T08:22:11.470Z,63.30
2018-01-26T08:24:39.336Z,71.80
2018-01-26T08:27:07.606Z,70.90
2018-01-26T08:29:35.479Z,75.85
2018-01-26T08:32:03.704Z,70.37
2018-01-26T08:34:31.953Z,60.67
2018-01-26T08:37:00.193Z,67.30
2018-01-26T08:39:28.081Z,64.05
2018-01-26T08:41:56.347Z,63.95
2018-01-26T08:44:24.214Z,64.28
2018-01-26T08:46:52.453Z,87.15
2018-01-26T08:49:20.003Z,71.28
2018-01-26T08:51:47.473Z,64.12
2018-01-26T08:54:14.954Z,66.40
2018-01-26T08:56:42.878Z,51.75
2018-01-26T08:59:11.486Z,69.62
2018-01-26T09:01:39.402Z,67.18
2018-01-26T09:04:07.643Z,50.78
2018-01-26T09:06:35.887Z,53.10
2018-01-26T09:09:04.144Z,55.70
2018-01-26T09:11:32.022Z,57.15
2018-01-26T09:14:00.256Z,66.62
2018-01-26T09:16:28.145Z,61.42
2018-01-26T09:18:55.608Z,62.88
2018-01-26T09:21:23.094Z,57.28
2018-01-26T09:23:51.028Z,51.63
2018-01-26T09:26:19.375Z,58.28
2018-01-26T09:28:47.647Z,45.85
2018-01-26T09:31:15.519Z,52.42
2018-01-26T09:33:43.392Z,57.50
2018-01-26T09:36:10.939Z,59.05
2018-01-26T09:38:38.829Z,46.58
2018-01-26T09:41:06.983Z,42.40
2018-01-26T09:46:09.588Z,57.70
2018-01-26T09:48:37.062Z,58.30
2018-01-26T09:51:04.627Z,60.00
2018-01-26T09:53:32.863Z,56.30
2018-01-26T09:56:01.136Z,57.35
2018-01-26T09:58:29.515Z,53.42
2018-01-26T10:00:57.935Z,49.03
2018-01-26T10:03:25.427Z,53.45
2018-01-26T10:05:53.703Z,52.72
2018-01-26T10:08:21.587Z,49.88
2018-01-26T10:10:49.093Z,41.25
2018-01-26T10:13:16.611Z,46.28
2018-01-26T10:15:44.506Z,44.30
2018-01-26T10:18:12.385Z,40.80
2018-01-26T10:20:41.027Z,38.63
2018-01-26T10:23:08.935Z,48.97
2018-01-26T10:25:37.622Z,36.80
2018-01-26T10:28:05.124Z,32.80
2018-01-26T10:30:33.026Z,31.52
2018-01-26T10:33:00.540Z,38.15
2018-01-26T10:35:28.421Z,32.90
2018-01-26T10:37:56.327Z,31.58
2018-01-26T10:40:23.845Z,29.25
2018-01-26T10:42:51.795Z,32.72
2018-01-26T10:45:20.133Z,35.47
2018-01-26T10:47:47.633Z,29.35
2018-01-26T10:50:15.974Z,27.95
2018-01-26T10:52:44.427Z,27.02
2018-01-26T10:55:12.292Z,34.80
2018-01-26T10:57:40.168Z,31.52
2018-01-26T11:00:08.735Z,39.63
2018-01-26T11:02:36.679Z,28.12
2018-01-26T11:05:04.563Z,31.98
2018-01-26T11:07:32.891Z,31.23
2018-01-26T11:10:00.848Z,29.95
2018-01-26T11:12:29.115Z,35.05
2018-01-26T11:14:56.997Z,29.48
2018-01-26T11:17:25.228Z,29.83
2018-01-26T11:19:52.717Z,25.85
2018-01-26T11:22:20.760Z,24.23
2018-01-26T11:24:49.019Z,23.15
2018-01-26T11:27:16.969Z,24.15
2018-01-26T11:29:44.920Z,22.67
2018-01-26T11:32:12.821Z,23.67
2018-01-26T11:34:40.316Z,23.87
2018-01-26T11:37:08.215Z,26.48
2018-01-26T11:39:36.083Z,22.58
2018-01-26T11:42:04.363Z,20.95
2018-01-26T11:44:32.683Z,24.02
2018-01-26T11:47:00.560Z,20.02
2018-01-26T11:49:28.435Z,25.55
2018-01-26T11:51:56.019Z,27.33
2018-01-26T11:54:23.507Z,19.90
2018-01-26T11:56:51.783Z,25.92
2018-01-26T11:59:19.336Z,18.25
2018-01-26T12:01:47.240Z,24.33
2018-01-26T12:04:15.143Z,24.48
2018-01-26T12:06:43.497Z,19.85
2018-01-26T12:09:11.430Z,25.37
2018-01-26T12:11:39.767Z,23.35
2018-01-26T12:14:07.281Z,26.45
2018-01-26T12:16:35.531Z,22.60
2018-01-26T12:19:03.419Z,23.08
2018-01-26T12:21:31.734Z,24.45
2018-01-26T12:23:59.596Z,26.92
2018-01-26T12:26:27.179Z,26.62
2018-01-26T12:28:54.656Z,23.95
2018-01-26T12:31:22.554Z,23.08
2018-01-26T12:33:50.871Z,25.75
2018-01-26T12:36:18.765Z,26.23
2018-01-26T12:38:47.118Z,32.10
2018-01-26T12:41:15.094Z,29.00
2018-01-26T12:43:43.190Z,28.25
2018-01-26T12:46:11.190Z,35.35
2018-01-26T12:48:39.443Z,28.23
2018-01-26T12:51:07.479Z,29.45
2018-01-26T12:53:35.049Z,26.05
2018-01-26T12:56:02.919Z,31.00
2018-01-26T12:58:30.402Z,33.92
2018-01-26T13:00:58.271Z,32.67
2018-01-26T13:03:25.735Z,32.42
2018-01-26T13:05:54.070Z,39.35
2018-01-26T13:08:22.323Z,31.80
2018-01-26T13:10:49.815Z,35.38
2018-01-26T13:13:18.350Z,35.90
2018-01-26T13:15:45.826Z,32.05
2018-01-26T13:18:13.600Z,39.33
2018-01-26T13:20:42.278Z,33.15
2018-01-26T13:23:09.833Z,35.83
2018-01-26T13:25:37.306Z,37.70
2018-01-26T13:28:05.531Z,43.15
2018-01-26T13:30:33.487Z,40.75
2018-01-26T13:33:01.403Z,39.58
2018-01-26T13:35:29.678Z,45.25
2018-01-26T13:37:57.911Z,45.97
2018-01-26T13:40:26.207Z,47.88
2018-01-26T13:42:54.107Z,46.58
2018-01-26T13:45:22.375Z,45.12
2018-01-26T13:47:49.863Z,45.17
2018-01-26T13:50:18.220Z,46.37
2018-01-26T13:52:46.079Z,47.25
2018-01-26T13:55:14.331Z,48.50
2018-01-26T13:57:42.731Z,41.28
2018-01-26T14:00:10.796Z,51.72
2018-01-26T14:02:39.039Z,42.67
2018-01-26T14:05:06.535Z,47.28
2018-01-26T14:07:34.415Z,47.85
2018-01-26T14:10:02.328Z,42.03
2018-01-26T14:12:30.899Z,38.38
2018-01-26T14:14:58.506Z,41.10
2018-01-26T14:17:27.123Z,41.10
2018-01-26T14:19:55.397Z,43.53
2018-01-26T14:22:23.657Z,49.17
2018-01-26T14:24:51.536Z,49.95
2018-01-26T14:27:19.795Z,60.28
2018-01-26T14:29:47.662Z,66.12
2018-01-26T14:32:15.531Z,61.35
2018-01-26T14:34:43.102Z,62.47
2018-01-26T14:37:10.596Z,65.35
2018-01-26T14:39:38.522Z,57.38
2018-01-26T14:42:06.740Z,63.50
2018-01-26T14:44:35.020Z,63.67
2018-01-26T14:47:02.954Z,65.00
2018-01-26T14:49:31.981Z,61.47
2018-01-26T14:52:00.238Z,75.62
2018-01-26T14:54:28.163Z,73.57
2018-01-26T14:56:56.451Z,71.78
2018-01-26T14:59:23.957Z,71.10
2018-01-26T15:01:52.269Z,74.72
2018-01-26T15:04:20.897Z,73.53
2018-01-26T15:06:48.363Z,69.40
2018-01-26T15:09:16.634Z,74.95
2018-01-26T15:11:45.463Z,68.85
2018-01-26T15:14:13.439Z,75.22
2018-01-26T15:16:42.055Z,66.20
2018-01-26T15:19:09.584Z,64.57
2018-01-26T15:21:37.099Z,60.95
2018-01-26T15:24:06.152Z,71.30
2018-01-26T15:26:34.031Z,60.53
2018-01-26T15:29:02.271Z,72.30
2018-01-26T15:31:30.203Z,68.07
2018-01-26T15:33:58.608Z,69.22
2018-01-26T15:36:26.875Z,69.25
2018-01-26T15:38:54.765Z,66.12
2018-01-26T15:41:22.276Z,67.87
2018-01-26T15:43:50.609Z,66.15
2018-01-26T15:46:19.220Z,66.10
2018-01-26T15:48:48.287Z,73.00
2018-01-26T15:51:15.775Z,67.35
2018-01-26T15:53:44.024Z,68.10
2018-01-26T15:56:11.923Z,61.63
2018-01-26T15:58:39.793Z,59.17
2018-01-26T16:01:07.702Z,71.87
2018-01-26T16:03:35.607Z,72.60
2018-01-26T16:06:03.160Z,69.25
2018-01-26T16:08:31.034Z,77.10
2018-01-26T16:10:58.927Z,77.85
2018-01-26T16:13:26.844Z,80.68
2018-01-26T16:16:04.034Z,77.07
2018-01-26T16:18:32.683Z,74.40
2018-01-26T16:21:02.932Z,79.40
2018-01-26T16:23:31.299Z,81.87
2018-01-26T16:25:59.269Z,68.55
2018-01-26T16:28:27.158Z,83.60
2018-01-26T16:30:54.661Z,86.65
2018-01-26T16:33:22.149Z,81.05
2018-01-26T16:35:50.014Z,82.37
2018-01-26T16:38:17.905Z,82.28
2018-01-26T16:40:45.778Z,116.00
2018-01-26T16:43:14.016Z,103.00
2018-01-26T16:45:42.309Z,80.47
2018-01-26T16:48:10.231Z,85.00
2018-01-26T16:50:37.709Z,78.00
2018-01-26T16:53:05.639Z,66.07
2018-01-26T16:55:33.550Z,76.80
2018-01-26T16:58:01.435Z,85.10
2018-01-26T17:00:30.018Z,82.07
2018-01-26T17:02:57.503Z,90.20
2018-01-26T17:05:25.079Z,74.40
2018-01-26T17:07:52.570Z,71.25
2018-01-26T17:10:20.449Z,67.78
2018-01-26T17:12:48.372Z,67.90
2018-01-26T17:15:16.652Z,79.40
2018-01-26T17:17:44.528Z,73.47
2018-01-26T17:20:12.400Z,72.55
2018-01-26T17:22:40.685Z,71.03
2018-01-26T17:25:10.587Z,78.25
2018-01-26T17:27:39.091Z,74.35
2018-01-26T17:30:07.088Z,81.03
2018-01-26T17:32:35.068Z,67.15
2018-01-26T17:35:03.108Z,76.93
2018-01-26T17:37:30.779Z,89.50
2018-01-26T17:39:58.342Z,83.05
2018-01-26T17:42:26.608Z,71.40
2018-01-26T17:44:54.864Z,75.43
2018-01-26T17:47:22.755Z,74.70
2018-01-26T17:49:50.618Z,85.45
2018-01-26T17:52:19.280Z,86.50
2018-01-26T17:54:47.154Z,84.10
2018-01-26T17:57:15.477Z,86.28
2018-01-26T17:59:44.241Z,91.80
2018-01-26T18:02:11.752Z,79.97
2018-01-26T18:04:39.987Z,81.18
2018-01-26T18:07:08.056Z,77.62
2018-01-26T18:09:36.253Z,73.20
2018-01-26T18:12:04.503Z,75.62
2018-01-26T18:14:32.680Z,90.00
2018-01-26T18:17:00.295Z,88.25
2018-01-26T18:19:28.614Z,82.65
2018-01-26T18:21:57.360Z,78.15
2018-01-26T18:24:25.615Z,83.20
2018-01-26T18:26:53.851Z,80.45
2018-01-26T18:29:22.016Z,83.60
2018-01-26T18:31:49.525Z,80.53
2018-01-26T18:34:17.428Z,70.80
2018-01-26T18:36:44.915Z,75.30
2018-01-26T18:39:12.798Z,64.95
2018-01-26T18:41:42.162Z,82.37
2018-01-26T18:44:09.671Z,77.78
2018-01-26T18:46:37.159Z,80.18
2018-01-26T18:49:04.639Z,71.00
2018-01-26T18:51:32.541Z,73.97
2018-01-26T18:54:00.779Z,67.57
2018-01-26T18:56:29.055Z,68.82
2018-01-26T18:58:56.579Z,76.57
2018-01-26T19:01:24.611Z,74.47
2018-01-26T19:03:52.109Z,82.75
2018-01-26T19:06:20.415Z,78.78
2018-01-26T19:08:48.661Z,80.65
2018-01-26T19:11:16.899Z,74.57
2018-01-26T19:13:44.690Z,71.68
2018-01-26T19:16:12.582Z,73.43
2018-01-26T19:18:40.835Z,75.18
2018-01-26T19:21:09.151Z,74.18
2018-01-26T19:23:37.785Z,64.82
2018-01-26T19:26:06.034Z,77.53
2018-01-26T19:28:34.000Z,65.47
2018-01-26T19:31:02.321Z,68.72
2018-01-26T19:33:30.560Z,61.90
2018-01-26T19:35:58.053Z,70.80
2018-01-26T19:38:26.329Z,67.30
2018-01-26T19:40:54.203Z,64.03
2018-01-26T19:43:22.508Z,76.60
2018-01-26T19:45:49.972Z,86.40
2018-01-26T19:48:18.212Z,80.97
2018-01-26T19:50:47.619Z,78.35
2018-01-26T19:53:15.091Z,65.07
2018-01-26T19:55:43.943Z,78.32
2018-01-26T19:58:13.444Z,85.68
2018-01-26T20:00:40.920Z,83.07
2018-01-26T20:03:21.140Z,73.82
2018-01-26T20:05:54.272Z,72.12
2018-01-26T20:08:31.084Z,68.00
2018-01-26T20:10:59.760Z,78.55
2018-01-26T20:13:28.549Z,77.25
2018-01-26T20:15:57.233Z,74.22
2018-01-26T20:18:24.750Z,75.53
2018-01-26T20:20:52.659Z,80.72
2018-01-26T20:23:22.215Z,86.85
2018-01-26T20:25:49.679Z,81.72
2018-01-26T20:28:18.648Z,67.35
2018-01-26T20:30:46.543Z,74.03
2018-01-26T20:33:14.840Z,84.85
2018-01-26T20:35:42.349Z,92.47
2018-01-26T20:38:10.237Z,85.35
2018-01-26T20:40:38.477Z,90.57
2018-01-26T20:43:06.733Z,81.22
2018-01-26T20:45:34.724Z,87.15
2018-01-26T20:48:02.998Z,87.62
2018-01-26T20:50:31.570Z,84.82
2018-01-26T20:53:00.667Z,83.12
2018-01-26T20:55:28.139Z,83.30
2018-01-26T20:57:56.019Z,73.93
2018-01-26T21:00:24.559Z,68.87
2018-01-26T21:02:52.936Z,77.07
2018-01-26T21:05:20.405Z,78.65
2018-01-26T21:07:48.874Z,74.40
2018-01-26T21:10:17.147Z,83.03
2018-01-26T21:12:45.076Z,67.05
2018-01-26T21:15:13.516Z,70.47
2018-01-26T21:17:41.408Z,89.57
2018-01-26T21:20:10.455Z,62.75
2018-01-26T21:22:37.944Z,59.63
2018-01-26T21:25:05.718Z,61.80
2018-01-26T21:27:33.430Z,57.03
2018-01-26T21:30:01.218Z,59.67
2018-01-26T21:32:29.480Z,62.90
2018-01-26T21:34:56.966Z,59.95
2018-01-26T21:37:24.843Z,56.40
2018-01-26T21:39:52.323Z,54.47
2018-01-26T21:42:20.565Z,65.12
2018-01-26T21:44:50.450Z,56.50
2018-01-26T21:47:18.687Z,57.47
2018-01-26T21:49:46.635Z,56.25
2018-01-26T21:52:14.597Z,53.97
2018-01-26T21:54:42.885Z,52.28
2018-01-26T21:57:10.370Z,48.42
2018-01-26T21:59:38.963Z,61.50
2018-01-26T22:02:07.198Z,54.83
2018-01-26T22:04:40.257Z,51.67
2018-01-26T22:07:13.775Z,45.55
2018-01-26T22:09:42.817Z,56.58
2018-01-26T22:12:11.406Z,52.58
2018-01-26T22:14:38.873Z,44.85
2018-01-26T22:17:06.752Z,55.65
2018-01-26T22:19:34.228Z,46.70
2018-01-26T22:22:02.554Z,51.60
2018-01-26T22:24:30.060Z,53.83
2018-01-26T22:26:58.171Z,56.70
2018-01-26T22:29:26.695Z,58.10
2018-01-26T22:31:54.261Z,46.67
2018-01-26T22:34:21.738Z,37.40
2018-01-26T22:36:49.638Z,36.88
2018-01-26T22:39:18.592Z,44.75
2018-01-26T22:41:46.498Z,51.20
2018-01-26T22:44:14.816Z,39.83
2018-01-26T22:46:43.758Z,36.47
2018-01-26T22:49:11.633Z,34.55
2018-01-26T22:51:39.557Z,39.13
2018-01-26T22:54:07.405Z,42.40
2018-01-26T22:56:35.651Z,31.58
2018-01-26T22:59:03.198Z,32.17
2018-01-26T23:01:31.105Z,35.55
2018-01-26T23:03:59.068Z,33.03
2018-01-26T23:06:27.675Z,28.92
2018-01-26T23:08:55.534Z,29.10
2018-01-26T23:11:23.086Z,28.45
2018-01-26T23:13:51.456Z,22.45
2018-01-26T23:16:19.330Z,25.95
2018-01-26T23:18:47.246Z,30.70
2018-01-26T23:21:15.127Z,32.30
2018-01-26T23:23:43.327Z,25.17
2018-01-26T23:26:11.605Z,28.52
2018-01-26T23:28:39.080Z,34.20
2018-01-26T23:31:06.732Z,31.65
2018-01-26T23:33:34.323Z,24.48
2018-01-26T23:36:02.203Z,22.23
2018-01-26T23:38:31.033Z,28.20
2018-01-26T23:40:59.328Z,23.80
2018-01-26T23:43:27.199Z,23.33
2018-01-26T23:45:54.697Z,24.15
2018-01-26T23:48:22.941Z,20.52
2018-01-26T23:50:50.420Z,26.40
2018-01-26T23:53:18.260Z,27.73
2018-01-26T23:55:46.527Z,34.10
2018-01-26T23:58:14.404Z,30.17
